createdAt,value
2018-06-20T00:02:20.406Z,70.55
2018-06-20T00:04:47.880Z,70.77
2018-06-20T00:07:21.125Z,70.51
2018-06-20T00:09:48.742Z,70.64
2018-06-20T00:12:16.149Z,71.30
2018-06-20T00:14:45.258Z,71.32
2018-06-20T00:17:12.717Z,71.30
2018-06-20T00:19:40.105Z,70.97
2018-06-20T00:22:07.450Z,70.92
2018-06-20T00:24:34.877Z,70.89
2018-06-20T00:27:02.231Z,70.42
2018-06-20T00:29:29.560Z,70.81
2018-06-20T00:31:56.931Z,70.99
2018-06-20T00:34:24.288Z,71.09
2018-06-20T00:36:51.729Z,72.03
2018-06-20T00:39:19.061Z,72.13
2018-06-20T00:41:46.927Z,72.65
2018-06-20T00:44:19.407Z,72.15
2018-06-20T00:46:49.731Z,71.28
2018-06-20T00:49:17.026Z,71.16
2018-06-20T00:51:44.378Z,72.79
2018-06-20T00:54:11.705Z,72.52
2018-06-20T00:56:39.013Z,71.78
2018-06-20T00:59:06.436Z,72.42
2018-06-20T01:01:33.834Z,72.61
2018-06-20T01:04:01.168Z,72.60
2018-06-20T01:06:28.478Z,72.22
2018-06-20T01:08:57.028Z,72.61
2018-06-20T01:11:24.971Z,72.49
2018-06-20T01:13:52.255Z,72.13
2018-06-20T01:16:19.603Z,72.56
2018-06-20T01:18:47.263Z,73.20
2018-06-20T01:21:14.849Z,72.88
2018-06-20T01:23:42.271Z,72.63
2018-06-20T01:26:09.673Z,73.22
2018-06-20T01:28:36.992Z,72.86
2018-06-20T01:31:04.324Z,72.71
2018-06-20T01:33:31.716Z,72.71
2018-06-20T01:35:59.119Z,73.43
2018-06-20T01:38:26.352Z,73.18
2018-06-20T01:40:53.773Z,73.49
2018-06-20T01:43:21.148Z,73.94
2018-06-20T01:45:48.497Z,74.28
2018-06-20T01:48:15.822Z,73.69
2018-06-20T01:50:43.156Z,73.99
2018-06-20T01:53:10.487Z,74.59
2018-06-20T01:55:37.815Z,74.91
2018-06-20T01:58:05.273Z,74.47
2018-06-20T02:00:45.098Z,74.23
2018-06-20T02:03:12.531Z,74.53
2018-06-20T02:05:39.851Z,73.97
2018-06-20T02:08:07.141Z,74.84
2018-06-20T02:10:34.510Z,74.66
2018-06-20T02:13:01.891Z,73.91
2018-06-20T02:15:29.298Z,73.61
2018-06-20T02:17:56.655Z,73.04
2018-06-20T02:20:23.940Z,74.19
2018-06-20T02:22:51.332Z,74.01
2018-06-20T02:25:18.685Z,73.71
2018-06-20T02:27:46.023Z,72.97
2018-06-20T02:30:13.336Z,73.15
2018-06-20T02:32:40.729Z,73.07
2018-06-20T02:35:08.115Z,73.45
2018-06-20T02:37:35.764Z,74.15
2018-06-20T02:40:03.054Z,74.17
2018-06-20T02:42:30.382Z,74.59
2018-06-20T02:44:58.490Z,74.39
2018-06-20T02:47:31.493Z,75.37
2018-06-20T02:49:59.210Z,75.16
2018-06-20T02:52:26.584Z,74.40
2018-06-20T02:54:53.907Z,74.63
2018-06-20T02:57:21.279Z,75.40
2018-06-20T02:59:48.608Z,75.01
2018-06-20T03:02:15.954Z,75.01
2018-06-20T03:04:43.324Z,75.44
2018-06-20T03:07:14.111Z,75.54
2018-06-20T03:09:42.368Z,75.15
2018-06-20T03:12:09.840Z,75.11
2018-06-20T03:14:37.262Z,75.11
2018-06-20T03:17:04.662Z,74.76
2018-06-20T03:19:32.041Z,74.44
2018-06-20T03:21:59.492Z,74.67
2018-06-20T03:24:26.856Z,74.25
2018-06-20T03:26:54.226Z,74.92
2018-06-20T03:29:22.747Z,74.07
2018-06-20T03:31:50.077Z,74.45
2018-06-20T03:34:17.335Z,74.52
2018-06-20T03:36:44.718Z,74.64
2018-06-20T03:39:12.077Z,75.45
2018-06-20T03:41:39.731Z,75.24
2018-06-20T03:44:07.163Z,75.29
2018-06-20T03:46:34.862Z,75.50
2018-06-20T03:49:02.215Z,75.38
2018-06-20T03:51:29.591Z,75.16
2018-06-20T03:53:56.997Z,75.35
2018-06-20T03:56:24.426Z,75.94
2018-06-20T03:58:52.105Z,75.58
2018-06-20T04:01:19.480Z,76.26
2018-06-20T04:03:46.874Z,76.40
2018-06-20T04:06:14.260Z,75.52
2018-06-20T04:08:41.636Z,76.21
2018-06-20T04:11:08.953Z,75.62
2018-06-20T04:13:36.345Z,76.40
2018-06-20T04:16:03.758Z,75.48
2018-06-20T04:18:41.416Z,73.34
2018-06-20T04:21:10.230Z,73.66
2018-06-20T04:23:38.872Z,73.56
2018-06-20T04:26:09.171Z,74.47
2018-06-20T04:28:36.770Z,74.32
2018-06-20T04:31:06.625Z,73.52
2018-06-20T04:33:34.948Z,73.95
2018-06-20T04:36:02.311Z,72.95
2018-06-20T04:38:29.700Z,72.75
2018-06-20T04:40:57.658Z,74.28
2018-06-20T04:43:24.907Z,73.91
2018-06-20T04:45:52.220Z,74.65
2018-06-20T04:48:19.642Z,74.35
2018-06-20T04:50:47.059Z,74.48
2018-06-20T04:53:14.493Z,74.26
2018-06-20T04:55:42.053Z,73.94
2018-06-20T04:58:09.279Z,73.67
2018-06-20T05:00:36.548Z,73.25
2018-06-20T05:03:03.817Z,73.68
2018-06-20T05:05:31.126Z,72.93
2018-06-20T05:07:58.547Z,73.13
2018-06-20T05:10:26.259Z,73.89
2018-06-20T05:12:53.569Z,74.02
2018-06-20T05:15:20.979Z,74.05
2018-06-20T05:17:48.429Z,74.24
2018-06-20T05:20:15.784Z,73.55
2018-06-20T05:22:43.230Z,73.00
2018-06-20T05:25:10.519Z,73.13
2018-06-20T05:27:37.909Z,72.47
2018-06-20T05:30:05.487Z,73.03
2018-06-20T05:32:32.862Z,73.23
2018-06-20T05:35:00.223Z,73.12
2018-06-20T05:37:27.567Z,73.32
2018-06-20T05:39:54.900Z,73.36
2018-06-20T05:42:22.277Z,72.83
2018-06-20T05:44:49.639Z,72.93
2018-06-20T05:47:17.013Z,72.85
2018-06-20T05:49:44.428Z,72.23
2018-06-20T05:52:13.261Z,72.11
2018-06-20T05:54:40.657Z,71.54
2018-06-20T05:57:07.983Z,71.92
2018-06-20T05:59:35.233Z,71.67
2018-06-20T06:02:02.583Z,71.13
2018-06-20T06:04:29.902Z,71.96
2018-06-20T06:06:57.167Z,70.60
2018-06-20T06:09:24.593Z,70.23
2018-06-20T06:11:51.889Z,70.42
2018-06-20T06:14:22.450Z,69.06
2018-06-20T06:16:49.850Z,69.49
2018-06-20T06:19:17.203Z,69.06
2018-06-20T06:21:44.522Z,68.33
2018-06-20T06:24:11.931Z,68.72
2018-06-20T06:26:39.305Z,68.02
2018-06-20T06:29:06.678Z,67.15
2018-06-20T06:31:34.034Z,67.40
2018-06-20T06:34:01.344Z,66.70
2018-06-20T06:36:28.694Z,66.02
2018-06-20T06:38:56.137Z,65.69
2018-06-20T06:41:23.373Z,65.18
2018-06-20T06:43:50.671Z,65.15
2018-06-20T06:46:17.938Z,65.34
2018-06-20T06:48:45.345Z,66.01
2018-06-20T06:51:12.699Z,65.37
2018-06-20T06:53:40.029Z,64.65
2018-06-20T06:56:07.372Z,64.11
2018-06-20T06:58:34.742Z,62.88
2018-06-20T07:01:02.147Z,63.02
2018-06-20T07:03:29.605Z,62.74
2018-06-20T07:05:57.020Z,62.03
2018-06-20T07:08:24.335Z,59.43
2018-06-20T07:10:51.667Z,60.52
2018-06-20T07:18:31.258Z,57.77
2018-06-20T07:20:58.692Z,58.24
2018-06-20T07:23:26.048Z,58.12
2018-06-20T07:25:53.395Z,58.12
2018-06-20T07:28:20.663Z,57.21
2018-06-20T07:30:48.179Z,58.43
2018-06-20T07:33:15.612Z,56.62
2018-06-20T07:35:43.024Z,56.57
2018-06-20T07:38:10.368Z,57.81
2018-06-20T07:40:37.787Z,55.90
2018-06-20T07:45:38.684Z,56.19
2018-06-20T07:48:06.049Z,55.37
2018-06-20T07:50:33.393Z,55.30
2018-06-20T07:53:00.748Z,54.94
2018-06-20T07:55:28.123Z,53.44
2018-06-20T07:57:55.459Z,55.66
2018-06-20T08:00:28.472Z,54.28
2018-06-20T08:03:14.592Z,53.25
2018-06-20T08:05:47.657Z,53.24
2018-06-20T08:08:20.702Z,53.80
2018-06-20T08:10:53.805Z,51.63
2018-06-20T08:13:26.901Z,52.78
2018-06-20T08:16:01.214Z,53.03
2018-06-20T08:18:34.210Z,51.63
2018-06-20T08:23:38.320Z,50.72
2018-06-20T08:26:05.690Z,51.29
2018-06-20T08:28:33.048Z,50.89
2018-06-20T08:31:00.434Z,51.94
2018-06-20T08:33:27.843Z,50.46
2018-06-20T08:35:55.166Z,49.61
2018-06-20T08:38:22.519Z,51.14
2018-06-20T08:45:55.560Z,49.77
2018-06-20T08:48:22.894Z,50.61
2018-06-20T08:50:50.290Z,48.10
2018-06-20T08:53:17.643Z,48.98
2018-06-20T08:55:45.028Z,48.15
2018-06-20T08:58:20.049Z,48.40
2018-06-20T09:00:53.053Z,46.98
2018-06-20T09:03:21.704Z,48.16
2018-06-20T09:05:54.709Z,47.95
2018-06-20T09:08:27.711Z,47.32
2018-06-20T09:11:00.789Z,45.18
2018-06-20T09:13:33.911Z,43.31
2018-06-20T09:16:06.810Z,45.40
2018-06-20T09:18:52.642Z,45.85
2018-06-20T09:21:25.048Z,45.00
2018-06-20T09:23:52.437Z,44.25
2018-06-20T09:26:19.870Z,41.45
2018-06-20T09:28:47.281Z,42.17
2018-06-20T09:31:14.602Z,41.84
2018-06-20T09:33:42.060Z,42.26
2018-06-20T09:36:10.045Z,41.26
2018-06-20T09:38:37.370Z,41.37
2018-06-20T09:41:04.806Z,42.40
2018-06-20T09:43:32.215Z,40.96
2018-06-20T09:45:59.557Z,41.74
2018-06-20T09:48:26.904Z,41.69
2018-06-20T09:50:55.840Z,42.12
2018-06-20T09:53:23.202Z,40.65
2018-06-20T09:55:50.508Z,40.88
2018-06-20T09:58:17.910Z,41.93
2018-06-20T10:00:57.649Z,43.06
2018-06-20T10:03:30.744Z,46.11
2018-06-20T10:06:03.687Z,43.40
2018-06-20T10:08:36.780Z,41.01
2018-06-20T10:11:09.869Z,41.12
2018-06-20T10:13:41.797Z,42.01
2018-06-20T10:16:09.196Z,41.44
2018-06-20T10:18:36.580Z,41.73
2018-06-20T10:21:10.265Z,39.74
2018-06-20T10:23:37.593Z,39.27
2018-06-20T10:26:05.019Z,38.36
2018-06-20T10:28:32.389Z,41.43
2018-06-20T10:30:59.776Z,41.31
2018-06-20T10:33:27.175Z,40.90
2018-06-20T10:35:54.518Z,41.14
2018-06-20T10:38:21.960Z,42.45
2018-06-20T10:40:49.341Z,39.50
2018-06-20T10:43:18.118Z,40.69
2018-06-20T10:45:54.906Z,40.91
2018-06-20T10:48:22.387Z,41.89
2018-06-20T10:50:50.789Z,41.95
2018-06-20T10:53:18.222Z,42.66
2018-06-20T10:55:46.610Z,41.73
2018-06-20T10:58:19.690Z,40.42
2018-06-20T11:00:52.535Z,39.61
2018-06-20T11:03:25.604Z,36.68
2018-06-20T11:05:58.555Z,38.77
2018-06-20T11:08:31.590Z,37.68
2018-06-20T11:11:04.625Z,36.31
2018-06-20T11:13:32.062Z,36.76
2018-06-20T11:15:59.463Z,38.26
2018-06-20T11:18:26.919Z,38.29
2018-06-20T11:20:58.201Z,36.04
2018-06-20T11:23:26.019Z,35.86
2018-06-20T11:25:53.909Z,36.80
2018-06-20T11:28:21.319Z,35.87
2018-06-20T11:30:48.709Z,33.83
2018-06-20T11:33:16.156Z,34.58
2018-06-20T11:35:43.583Z,36.74
2018-06-20T11:38:10.922Z,35.44
2018-06-20T11:40:38.344Z,36.62
2018-06-20T11:43:05.920Z,35.85
2018-06-20T11:45:39.083Z,34.97
2018-06-20T11:48:06.412Z,33.42
2018-06-20T11:50:33.780Z,32.11
2018-06-20T11:53:04.514Z,35.33
2018-06-20T11:58:16.173Z,33.29
2018-06-20T12:00:49.271Z,34.69
2018-06-20T12:03:22.108Z,34.20
2018-06-20T12:05:59.131Z,33.72
2018-06-20T12:08:32.207Z,32.34
2018-06-20T12:11:05.185Z,33.04
2018-06-20T12:13:38.259Z,32.35
2018-06-20T12:16:11.238Z,31.13
2018-06-20T12:18:44.299Z,32.22
2018-06-20T12:21:17.393Z,31.66
2018-06-20T12:23:50.415Z,33.89
2018-06-20T12:26:29.564Z,34.09
2018-06-20T12:29:02.640Z,34.33
2018-06-20T12:31:35.627Z,32.32
2018-06-20T12:34:08.710Z,33.21
2018-06-20T12:36:41.788Z,32.64
2018-06-20T12:39:08.595Z,32.56
2018-06-20T12:41:41.603Z,34.62
2018-06-20T12:45:18.427Z,36.57
2018-06-20T12:47:50.512Z,33.54
2018-06-20T12:50:23.293Z,33.61
2018-06-20T12:52:50.752Z,32.90
2018-06-20T12:55:18.121Z,33.98
2018-06-20T12:57:45.454Z,32.49
2018-06-20T13:00:13.043Z,32.31
2018-06-20T13:02:40.422Z,31.60
2018-06-20T13:05:07.716Z,30.73
2018-06-20T13:07:35.091Z,32.27
2018-06-20T13:10:03.598Z,32.41
2018-06-20T13:12:30.982Z,31.81
2018-06-20T13:15:01.491Z,30.20
2018-06-20T13:17:29.073Z,28.57
2018-06-20T13:19:56.381Z,31.71
2018-06-20T13:22:23.791Z,32.98
2018-06-20T13:24:51.245Z,32.26
2018-06-20T13:27:24.200Z,34.74
2018-06-20T13:30:02.983Z,31.51
2018-06-20T13:32:36.126Z,31.65
2018-06-20T13:35:09.276Z,31.62
2018-06-20T13:37:42.246Z,29.68
2018-06-20T13:40:15.186Z,30.23
2018-06-20T13:42:48.195Z,30.13
2018-06-20T13:45:21.286Z,30.04
2018-06-20T13:47:54.379Z,29.10
2018-06-20T13:50:21.684Z,28.87
2018-06-20T13:52:49.182Z,26.53
2018-06-20T13:55:16.579Z,27.28
2018-06-20T13:57:43.965Z,28.85
2018-06-20T14:00:11.379Z,27.34
2018-06-20T14:02:38.715Z,29.28
2018-06-20T14:05:06.395Z,29.61
2018-06-20T14:07:33.808Z,28.91
2018-06-20T14:10:01.615Z,30.04
2018-06-20T14:12:34.792Z,29.89
2018-06-20T14:15:05.315Z,28.51
2018-06-20T14:17:32.619Z,28.95
2018-06-20T14:20:05.687Z,27.22
2018-06-20T14:22:32.997Z,27.06
2018-06-20T14:25:00.670Z,28.01
2018-06-20T14:27:30.957Z,26.92
2018-06-20T14:30:00.336Z,27.42
2018-06-20T14:32:33.298Z,25.56
2018-06-20T14:35:06.312Z,26.30
2018-06-20T14:37:39.346Z,26.96
2018-06-20T14:40:12.966Z,26.58
2018-06-20T14:42:46.057Z,26.63
2018-06-20T14:45:19.162Z,25.89
2018-06-20T14:47:46.571Z,26.28
2018-06-20T14:50:13.868Z,26.90
2018-06-20T14:52:41.275Z,25.99
2018-06-20T14:55:08.709Z,26.89
2018-06-20T14:57:36.038Z,26.64
2018-06-20T15:00:04.151Z,26.75
2018-06-20T15:02:31.960Z,26.43
2018-06-20T15:04:59.558Z,27.80
2018-06-20T15:07:26.949Z,27.77
2018-06-20T15:09:54.322Z,26.92
2018-06-20T15:12:21.800Z,26.81
2018-06-20T15:14:51.369Z,26.03
2018-06-20T15:17:25.686Z,26.50
2018-06-20T15:19:53.488Z,27.45
2018-06-20T15:22:20.946Z,25.88
2018-06-20T15:24:48.473Z,27.19
2018-06-20T15:27:21.466Z,26.83
2018-06-20T15:29:54.374Z,26.01
2018-06-20T15:32:27.382Z,26.80
2018-06-20T15:35:03.490Z,25.98
2018-06-20T15:37:36.547Z,25.87
2018-06-20T15:40:04.359Z,26.66
2018-06-20T15:42:31.740Z,26.13
2018-06-20T15:45:00.774Z,26.91
2018-06-20T15:47:28.308Z,26.25
2018-06-20T15:49:55.713Z,26.97
2018-06-20T15:52:23.095Z,27.21
2018-06-20T15:54:50.434Z,26.63
2018-06-20T15:57:18.411Z,26.79
2018-06-20T15:59:46.040Z,27.98
2018-06-20T16:02:13.471Z,27.15
2018-06-20T16:04:41.578Z,27.19
2018-06-20T16:07:08.941Z,28.53
2018-06-20T16:09:41.952Z,27.58
2018-06-20T16:12:09.734Z,28.34
2018-06-20T16:14:37.782Z,28.00
2018-06-20T16:17:05.259Z,27.45
2018-06-20T16:19:38.315Z,28.59
2018-06-20T16:22:11.586Z,28.67
2018-06-20T16:24:44.590Z,27.54
2018-06-20T16:27:17.455Z,28.29
2018-06-20T16:29:50.421Z,28.56
2018-06-20T16:32:17.828Z,29.22
2018-06-20T16:34:45.396Z,28.74
2018-06-20T16:37:12.923Z,29.05
2018-06-20T16:39:40.250Z,28.85
2018-06-20T16:42:07.672Z,29.12
2018-06-20T16:44:36.937Z,29.36
2018-06-20T16:47:05.107Z,30.10
2018-06-20T16:49:34.963Z,29.67
2018-06-20T16:52:02.372Z,30.12
2018-06-20T16:54:29.663Z,29.22
2018-06-20T16:56:57.069Z,30.29
2018-06-20T16:59:24.450Z,30.55
2018-06-20T17:01:57.906Z,29.69
2018-06-20T17:04:28.518Z,30.35
2018-06-20T17:06:55.950Z,30.45
2018-06-20T17:09:24.134Z,30.32
2018-06-20T17:11:57.171Z,30.64
2018-06-20T17:14:30.412Z,31.88
2018-06-20T17:17:03.373Z,31.40
2018-06-20T17:19:36.600Z,30.81
2018-06-20T17:22:09.425Z,32.23
2018-06-20T17:24:43.210Z,32.64
2018-06-20T17:27:10.508Z,31.98
2018-06-20T17:29:37.896Z,32.76
2018-06-20T17:32:05.336Z,32.72
2018-06-20T17:34:32.715Z,32.19
2018-06-20T17:37:01.173Z,32.35
2018-06-20T17:39:28.566Z,32.79
2018-06-20T17:41:56.140Z,33.39
2018-06-20T17:44:23.656Z,33.77
2018-06-20T17:46:51.031Z,33.88
2018-06-20T17:49:18.415Z,33.59
2018-06-20T17:51:45.848Z,33.56
2018-06-20T17:54:13.196Z,34.34
2018-06-20T17:56:40.560Z,34.68
2018-06-20T17:59:08.239Z,34.47
2018-06-20T18:01:35.608Z,35.00
2018-06-20T18:04:03.086Z,34.81
2018-06-20T18:06:36.170Z,34.83
2018-06-20T18:09:11.254Z,35.44
2018-06-20T18:11:44.850Z,35.40
2018-06-20T18:14:18.065Z,35.64
2018-06-20T18:16:58.011Z,37.48
2018-06-20T18:19:25.714Z,36.64
2018-06-20T18:21:54.657Z,36.97
2018-06-20T18:24:22.239Z,37.90
2018-06-20T18:26:49.681Z,37.93
2018-06-20T18:29:17.037Z,37.64
2018-06-20T18:31:44.467Z,37.67
2018-06-20T18:34:12.042Z,38.06
2018-06-20T18:36:42.768Z,36.74
2018-06-20T18:39:10.785Z,38.25
2018-06-20T18:41:42.301Z,37.82
2018-06-20T18:44:10.097Z,38.50
2018-06-20T18:46:37.763Z,37.79
2018-06-20T18:49:06.577Z,38.49
2018-06-20T18:51:35.754Z,39.68
2018-06-20T18:54:10.777Z,41.07
2018-06-20T18:56:44.471Z,41.33
2018-06-20T19:02:12.841Z,42.62
2018-06-20T19:04:48.486Z,43.78
2018-06-20T19:07:23.033Z,44.23
2018-06-20T19:09:59.487Z,44.90
2018-06-20T19:15:36.560Z,45.60
2018-06-20T19:18:04.858Z,45.89
2018-06-20T19:20:32.186Z,45.97
2018-06-20T19:23:06.297Z,46.12
2018-06-20T19:25:33.625Z,47.56
2018-06-20T19:28:07.631Z,48.04
2018-06-20T19:30:42.836Z,47.94
2018-06-20T19:33:18.507Z,48.38
2018-06-20T19:35:45.860Z,48.92
2018-06-20T19:38:13.190Z,48.74
2018-06-20T19:40:40.705Z,48.65
2018-06-20T19:45:45.349Z,49.51
2018-06-20T19:48:12.874Z,49.37
2018-06-20T19:50:40.459Z,49.32
2018-06-20T19:53:08.049Z,49.55
2018-06-20T19:55:41.243Z,49.75
2018-06-20T19:58:08.599Z,50.68
2018-06-20T20:04:29.111Z,50.60
2018-06-20T20:06:57.101Z,51.17
2018-06-20T20:09:29.082Z,51.70
2018-06-20T20:12:11.449Z,52.09
2018-06-20T20:14:39.772Z,52.16
2018-06-20T20:17:07.449Z,52.64
2018-06-20T20:19:46.593Z,53.15
2018-06-20T20:22:15.557Z,52.65
2018-06-20T20:27:38.774Z,53.06
2018-06-20T20:33:14.007Z,53.80
2018-06-20T20:35:42.465Z,53.43
2018-06-20T20:38:25.444Z,54.08
2018-06-20T20:41:08.356Z,54.27
2018-06-20T20:43:38.368Z,54.95
2018-06-20T20:46:06.252Z,55.06
2018-06-20T20:48:33.793Z,55.25
2018-06-20T20:51:01.133Z,55.70
2018-06-20T20:53:28.465Z,55.58
2018-06-20T20:55:55.814Z,56.33
2018-06-20T20:58:32.867Z,56.06
2018-06-20T21:01:01.254Z,56.41
2018-06-20T21:03:30.979Z,57.24
2018-06-20T21:06:02.528Z,57.55
2018-06-20T21:08:30.239Z,57.12
2018-06-20T21:10:57.538Z,57.09
2018-06-20T21:13:30.228Z,58.27
2018-06-20T21:15:57.756Z,57.34
2018-06-20T21:18:25.052Z,57.59
2018-06-20T21:21:06.056Z,57.65
2018-06-20T21:23:33.656Z,58.02
2018-06-20T21:28:39.046Z,59.36
2018-06-20T21:31:06.827Z,59.25
2018-06-20T21:33:36.127Z,59.46
2018-06-20T21:36:03.561Z,59.69
2018-06-20T21:38:31.015Z,58.95
2018-06-20T21:41:06.512Z,59.68
2018-06-20T21:43:42.806Z,58.85
2018-06-20T21:46:10.202Z,58.44
2018-06-20T21:48:37.522Z,58.73
2018-06-20T21:51:04.769Z,59.12
2018-06-20T21:53:32.023Z,59.65
2018-06-20T21:55:59.315Z,59.51
2018-06-20T21:58:26.583Z,60.11
2018-06-20T22:01:03.166Z,60.08
2018-06-20T22:03:30.495Z,60.59
2018-06-20T22:05:58.006Z,60.51
2018-06-20T22:08:31.337Z,60.41
2018-06-20T22:11:11.077Z,61.11
2018-06-20T22:13:45.065Z,61.49
2018-06-20T22:16:55.850Z,60.70
2018-06-20T22:19:34.782Z,61.93
2018-06-20T22:22:07.091Z,61.97
2018-06-20T22:24:52.060Z,61.42
2018-06-20T22:27:20.177Z,61.30
2018-06-20T22:29:50.510Z,61.63
2018-06-20T22:32:18.203Z,62.56
2018-06-20T22:34:51.492Z,62.59
2018-06-20T22:37:21.212Z,62.24
2018-06-20T22:39:50.876Z,63.03
2018-06-20T22:42:19.646Z,63.43
2018-06-20T22:44:47.022Z,63.43
2018-06-20T22:47:14.439Z,63.33
2018-06-20T22:49:41.936Z,63.69
2018-06-20T22:52:09.321Z,63.99
2018-06-20T22:54:36.664Z,63.75
2018-06-20T22:57:04.223Z,64.67
2018-06-20T22:59:31.639Z,63.65
2018-06-20T23:01:59.074Z,64.62
2018-06-20T23:04:26.447Z,63.48
2018-06-20T23:06:53.820Z,64.34
2018-06-20T23:09:21.203Z,63.75
2018-06-20T23:11:49.332Z,64.29
2018-06-20T23:14:16.723Z,64.17
2018-06-20T23:16:44.064Z,63.92
2018-06-20T23:19:11.736Z,64.41
2018-06-20T23:21:39.549Z,64.14
2018-06-20T23:24:06.922Z,65.15
2018-06-20T23:26:34.299Z,64.48
2018-06-20T23:29:01.656Z,65.25
2018-06-20T23:31:29.081Z,65.10
2018-06-20T23:33:56.448Z,65.33
2018-06-20T23:36:24.404Z,64.96
2018-06-20T23:38:51.816Z,65.08
2018-06-20T23:41:19.249Z,64.95
2018-06-20T23:43:46.664Z,64.59
2018-06-20T23:46:14.206Z,64.16
2018-06-20T23:48:41.535Z,65.33
2018-06-20T23:51:08.849Z,65.16
2018-06-20T23:53:36.381Z,65.92
2018-06-20T23:56:03.784Z,65.88
2018-06-20T23:58:31.187Z,65.12
